Time;durP1;ratioP1;P1;durP2;ratioP2;P2;SDS_P1;SDS_P2;PMS_P1;PMS_P2;Temp;Humidity;BMP_temperature;BMP_pressure;BME280_temperature;BME280_humidity;BME280_pressure;Samples;Min_cycle;Max_cycle;Signal;HPM_P1;HPM_P2
2021/01/17 00:01:10;;;;;;;23.73;16.38;;;-2.10;79.10;;;;;;5041218;28;20405;-71
2021/01/17 00:03:36;;;;;;;24.83;16.00;;;-2.10;79.00;;;;;;5051066;28;20412;-71
2021/01/17 00:06:03;;;;;;;25.90;16.75;;;-2.00;79.10;;;;;;5037359;28;20443;-71
2021/01/17 00:08:29;;;;;;;24.17;16.60;;;-2.00;79.40;;;;;;5053254;28;20411;-72
2021/01/17 00:10:56;;;;;;;24.08;16.20;;;-2.00;78.80;;;;;;5067153;28;21112;-72
2021/01/17 00:13:23;;;;;;;24.92;16.23;;;-2.00;79.00;;;;;;5053952;28;20445;-72
2021/01/17 00:15:50;;;;;;;22.92;15.90;;;-2.00;79.20;;;;;;5071035;28;20465;-72
2021/01/17 00:18:16;;;;;;;24.40;16.85;;;-2.10;79.60;;;;;;5068531;28;20412;-72
2021/01/17 00:20:53;;;;;;;24.88;16.60;;;-2.10;79.90;;;;;;5070361;28;20431;-72
2021/01/17 00:23:20;;;;;;;24.38;16.73;;;-2.10;79.60;;;;;;5066964;28;20431;-72
2021/01/17 00:25:47;;;;;;;23.95;15.95;;;-1.90;79.10;;;;;;5070309;28;20461;-72
2021/01/17 00:28:14;;;;;;;24.33;16.52;;;-2.00;79.00;;;;;;5067181;28;20438;-72
2021/01/17 00:30:41;;;;;;;26.83;16.77;;;-2.10;79.20;;;;;;5052864;28;20862;-72
2021/01/17 00:33:08;;;;;;;25.02;16.60;;;-2.20;79.90;;;;;;5066763;28;20419;-72
2021/01/17 00:35:34;;;;;;;25.30;17.33;;;-2.20;79.80;;;;;;5070253;28;20493;-72
2021/01/17 00:38:02;;;;;;;27.40;17.27;;;-2.00;80.00;;;;;;5049770;28;20398;-72
2021/01/17 00:40:29;;;;;;;26.35;16.50;;;-2.00;79.70;;;;;;5070025;28;20427;-72
2021/01/17 00:42:55;;;;;;;25.42;17.50;;;-2.00;79.70;;;;;;5049077;28;20441;-72
2021/01/17 00:45:26;;;;;;;26.92;17.13;;;-2.10;80.20;;;;;;5070278;28;20404;-72
2021/01/17 00:47:55;;;;;;;28.30;17.73;;;-2.20;79.90;;;;;;5049324;28;20473;-72
2021/01/17 00:50:22;;;;;;;25.67;17.13;;;-2.10;80.10;;;;;;5070381;28;20408;-72
2021/01/17 00:52:56;;;;;;;26.70;17.50;;;-2.20;80.10;;;;;;5053026;28;20407;-72
2021/01/17 00:55:24;;;;;;;28.55;18.42;;;-2.10;79.80;;;;;;5067569;28;20477;-72
2021/01/17 00:57:51;;;;;;;25.70;16.65;;;-2.00;79.50;;;;;;5069988;28;20403;-72
2021/01/17 01:00:22;;;;;;;25.23;16.83;;;-2.00;79.50;;;;;;5033156;28;20522;-72
2021/01/17 01:02:48;;;;;;;25.35;17.05;;;-2.10;79.60;;;;;;5032563;28;20445;-72
2021/01/17 01:05:15;;;;;;;25.63;17.77;;;-2.10;79.80;;;;;;5029904;28;20413;-72
2021/01/17 01:07:44;;;;;;;26.63;17.27;;;-2.10;80.40;;;;;;5032670;28;20471;-72
2021/01/17 01:10:15;;;;;;;27.25;17.25;;;-2.20;80.00;;;;;;5039618;28;20399;-72
2021/01/17 01:12:41;;;;;;;27.90;17.20;;;-2.20;80.70;;;;;;5070312;28;20415;-72
2021/01/17 01:15:08;;;;;;;26.85;17.67;;;-2.10;79.90;;;;;;5049292;28;20442;-72
2021/01/17 01:17:35;;;;;;;26.02;17.85;;;-2.10;79.60;;;;;;5069787;28;20446;-72
2021/01/17 01:20:03;;;;;;;29.25;18.13;;;-2.10;80.20;;;;;;5048922;28;20485;-72
2021/01/17 01:22:30;;;;;;;28.60;18.63;;;-2.10;79.90;;;;;;5035853;28;20473;-72
2021/01/17 01:24:59;;;;;;;26.15;17.75;;;-2.10;79.50;;;;;;5048775;28;20473;-72
2021/01/17 01:27:25;;;;;;;27.27;17.77;;;-2.10;79.70;;;;;;5069167;28;20930;-72
2021/01/17 01:29:53;;;;;;;27.73;18.37;;;-2.10;80.20;;;;;;5070023;28;20405;-72
2021/01/17 01:32:19;;;;;;;26.60;18.15;;;-2.10;79.60;;;;;;5066222;28;20481;-72
2021/01/17 01:34:46;;;;;;;27.35;18.27;;;-2.00;80.00;;;;;;5052426;28;20441;-72
2021/01/17 01:37:14;;;;;;;27.48;18.67;;;-2.10;79.40;;;;;;5066521;28;21021;-72
2021/01/17 01:39:41;;;;;;;27.80;18.35;;;-2.10;80.50;;;;;;5052241;28;20415;-72
2021/01/17 01:42:10;;;;;;;27.97;18.57;;;-2.20;80.50;;;;;;5049002;28;20495;-72
2021/01/17 01:44:37;;;;;;;30.65;18.90;;;-2.20;79.90;;;;;;5051959;28;20431;-72
2021/01/17 01:47:04;;;;;;;27.50;18.15;;;-2.20;80.20;;;;;;5047903;28;20431;-72
2021/01/17 01:49:31;;;;;;;28.02;18.95;;;-2.20;79.90;;;;;;5069631;28;20403;-72
2021/01/17 01:52:03;;;;;;;30.17;19.30;;;-2.20;80.70;;;;;;5048957;28;20403;-72
2021/01/17 01:54:31;;;;;;;29.07;18.90;;;-2.30;80.70;;;;;;5069607;28;20418;-72
2021/01/17 01:56:57;;;;;;;28.65;18.98;;;-2.30;80.80;;;;;;5065917;28;20419;-72
2021/01/17 01:59:23;;;;;;;28.15;18.23;;;-2.20;80.40;;;;;;5051847;28;20431;-72
2021/01/17 02:01:53;;;;;;;31.80;18.83;;;-2.20;80.20;;;;;;5052065;28;20443;-72
2021/01/17 02:04:20;;;;;;;27.85;18.33;;;-2.20;80.70;;;;;;5048923;28;20440;-72
2021/01/17 02:07:12;;;;;;;28.80;18.77;;;-2.20;81.20;;;;;;5031780;28;20459;-72
2021/01/17 02:09:41;;;;;;;27.73;18.42;;;-2.30;81.50;;;;;;5045173;28;20850;-72
2021/01/17 02:12:19;;;;;;;29.02;18.80;;;-2.20;81.00;;;;;;5032102;28;20475;-72
2021/01/17 02:15:02;;;;;;;26.63;18.42;;;-2.20;80.80;;;;;;5047729;28;20491;-72
2021/01/17 02:17:32;;;;;;;28.93;19.80;;;-2.20;81.50;;;;;;5055180;28;20759;-72
2021/01/17 02:20:15;;;;;;;27.73;18.52;;;-2.30;82.00;;;;;;5069354;28;20542;-72
2021/01/17 02:22:47;;;;;;;28.60;19.08;;;-2.30;81.70;;;;;;5053102;28;20475;-72
2021/01/17 02:25:15;;;;;;;28.02;19.13;;;-2.30;82.20;;;;;;5067649;28;20412;-72
2021/01/17 02:27:43;;;;;;;29.25;19.55;;;-2.30;82.40;;;;;;5072641;28;20411;-72
2021/01/17 02:30:16;;;;;;;28.77;19.52;;;-2.30;82.60;;;;;;5069016;28;20903;-72
2021/01/17 02:32:48;;;;;;;31.20;19.57;;;-2.20;81.70;;;;;;5073122;28;20869;-72
2021/01/17 02:35:16;;;;;;;28.08;19.08;;;-2.20;81.50;;;;;;5069294;28;20423;-72
2021/01/17 02:38:07;;;;;;;27.90;19.08;;;-2.20;82.00;;;;;;5054885;28;20474;-72
2021/01/17 02:40:52;;;;;;;28.98;19.40;;;-2.30;82.00;;;;;;5051555;28;20858;-72
2021/01/17 02:43:20;;;;;;;28.40;19.70;;;-2.30;81.30;;;;;;5054858;28;20403;-72
2021/01/17 02:45:46;;;;;;;29.17;19.77;;;-2.30;81.70;;;;;;5069125;28;20942;-72
2021/01/17 02:48:12;;;;;;;30.10;20.02;;;-2.30;82.20;;;;;;5054807;28;20480;-72
2021/01/17 02:50:39;;;;;;;30.77;19.38;;;-2.30;81.50;;;;;;5068865;28;20871;-72
2021/01/17 02:53:30;;;;;;;30.75;19.85;;;-2.30;82.00;;;;;;5054826;28;20479;-72
2021/01/17 02:55:59;;;;;;;28.75;19.45;;;-2.40;82.60;;;;;;5034341;28;20412;-72
2021/01/17 02:58:27;;;;;;;30.50;19.77;;;-2.30;83.30;;;;;;5072445;28;20439;-72
2021/01/17 03:00:56;;;;;;;29.25;19.27;;;-2.30;82.40;;;;;;5069493;28;20523;-72
2021/01/17 03:03:36;;;;;;;30.90;19.90;;;-2.30;82.40;;;;;;5072238;28;20400;-72
2021/01/17 03:06:09;;;;;;;27.45;19.00;;;-2.20;82.50;;;;;;5069187;28;20408;-72
2021/01/17 03:08:40;;;;;;;30.60;20.48;;;-2.20;82.40;;;;;;5054661;28;20408;-72
2021/01/17 03:11:08;;;;;;;30.08;20.40;;;-2.20;82.30;;;;;;5050999;28;20946;-72
2021/01/17 03:13:39;;;;;;;30.90;19.87;;;-2.20;82.00;;;;;;5054639;28;20714;-72
2021/01/17 03:16:06;;;;;;;29.88;20.15;;;-2.20;82.30;;;;;;5052613;28;20462;-72
2021/01/17 03:18:33;;;;;;;29.60;19.85;;;-2.30;82.10;;;;;;5053318;28;20407;-72
2021/01/17 03:21:00;;;;;;;32.83;21.42;;;-2.30;82.80;;;;;;5047485;28;20430;-72
2021/01/17 03:23:27;;;;;;;30.92;20.63;;;-2.30;83.10;;;;;;5048689;28;20400;-72
2021/01/17 03:25:53;;;;;;;31.83;21.27;;;-2.30;82.60;;;;;;5054364;28;20408;-72
2021/01/17 03:28:20;;;;;;;32.22;20.33;;;-2.20;82.00;;;;;;5050103;28;20407;-72
2021/01/17 03:30:46;;;;;;;32.70;20.90;;;-2.20;82.20;;;;;;5071492;28;20469;-72
2021/01/17 03:33:12;;;;;;;30.60;20.48;;;-2.30;82.70;;;;;;5058580;28;20483;-72
2021/01/17 03:35:39;;;;;;;29.90;19.95;;;-2.30;82.80;;;;;;5034405;28;20453;-72
2021/01/17 03:38:05;;;;;;;30.77;20.13;;;-2.30;82.00;;;;;;5054801;28;20424;-72
2021/01/17 03:40:32;;;;;;;30.47;20.07;;;-2.30;82.20;;;;;;5071584;28;20482;-72
2021/01/17 03:42:58;;;;;;;31.15;20.75;;;-2.30;82.60;;;;;;5068499;28;20400;-72
2021/01/17 03:45:26;;;;;;;33.42;21.17;;;-2.30;83.00;;;;;;5054340;28;20399;-72
2021/01/17 03:47:53;;;;;;;29.45;19.55;;;-2.30;83.10;;;;;;5069661;28;20522;-73
2021/01/17 03:50:22;;;;;;;31.05;20.90;;;-2.30;83.40;;;;;;5053043;28;20403;-72
2021/01/17 03:52:51;;;;;;;31.63;20.33;;;-2.30;83.80;;;;;;5053510;28;20800;-72
2021/01/17 03:55:19;;;;;;;30.92;20.98;;;-2.30;84.30;;;;;;5051034;28;20413;-72
2021/01/17 03:57:46;;;;;;;34.47;22.23;;;-2.30;84.60;;;;;;5050673;28;20466;-72
2021/01/17 04:00:12;;;;;;;30.45;20.92;;;-2.30;85.00;;;;;;5062130;28;20481;-72
2021/01/17 04:02:39;;;;;;;31.48;20.88;;;-2.30;85.30;;;;;;5070981;28;20411;-72
2021/01/17 04:05:09;;;;;;;34.72;21.75;;;-2.30;85.50;;;;;;5067480;28;20728;-72
2021/01/17 04:07:35;;;;;;;31.80;20.73;;;-2.30;85.50;;;;;;5070864;28;20797;-72
2021/01/17 04:10:03;;;;;;;34.57;21.33;;;-2.30;85.20;;;;;;5043010;28;20765;-72
2021/01/17 04:12:32;;;;;;;34.30;21.65;;;-2.30;85.00;;;;;;5033513;28;20483;-72
2021/01/17 04:15:00;;;;;;;34.97;21.38;;;-2.30;84.80;;;;;;5052901;28;20412;-72
2021/01/17 04:17:29;;;;;;;31.63;20.92;;;-2.30;85.20;;;;;;5070535;28;20939;-72
2021/01/17 04:19:56;;;;;;;32.15;21.38;;;-2.30;85.60;;;;;;5049694;28;20438;-72
2021/01/17 04:22:22;;;;;;;31.20;21.30;;;-2.30;85.90;;;;;;5034579;28;20479;-72
2021/01/17 04:24:49;;;;;;;31.88;21.52;;;-2.20;85.80;;;;;;5033386;28;20406;-72
2021/01/17 04:27:15;;;;;;;33.35;21.80;;;-2.20;85.70;;;;;;5047977;28;20444;-72
2021/01/17 04:29:42;;;;;;;32.55;21.05;;;-2.20;86.20;;;;;;5050333;28;20861;-72
2021/01/17 04:32:08;;;;;;;36.40;23.13;;;-2.20;85.60;;;;;;5062943;28;20807;-72
2021/01/17 04:34:35;;;;;;;32.08;21.20;;;-2.20;85.20;;;;;;5052994;28;21009;-72
2021/01/17 04:37:02;;;;;;;31.58;21.08;;;-2.20;84.70;;;;;;5049891;28;20729;-72
2021/01/17 04:39:28;;;;;;;32.60;21.77;;;-2.20;83.90;;;;;;5069059;28;20850;-71
2021/01/17 04:41:57;;;;;;;33.53;21.40;;;-2.20;84.50;;;;;;5048739;28;20404;-72
2021/01/17 04:44:33;;;;;;;31.83;21.33;;;-2.20;84.10;;;;;;5052804;28;20460;-72
2021/01/17 04:47:03;;;;;;;33.42;21.73;;;-2.20;84.30;;;;;;5048888;28;20891;-72
2021/01/17 04:49:38;;;;;;;32.00;21.15;;;-2.20;84.50;;;;;;5052584;28;20404;-72
2021/01/17 04:52:07;;;;;;;34.35;21.13;;;-2.20;83.50;;;;;;5049946;28;20419;-72
2021/01/17 04:54:34;;;;;;;33.20;21.43;;;-2.20;82.80;;;;;;5069769;28;20477;-72
2021/01/17 04:57:13;;;;;;;33.05;21.98;;;-2.20;82.90;;;;;;5067166;28;20477;-72
2021/01/17 04:59:46;;;;;;;33.20;21.42;;;-2.20;83.70;;;;;;5070048;28;20435;-72
2021/01/17 05:02:34;;;;;;;32.95;21.85;;;-2.20;83.70;;;;;;5049510;28;20499;-72
2021/01/17 05:05:14;;;;;;;34.97;21.55;;;-2.20;84.10;;;;;;5070097;28;20403;-72
2021/01/17 05:07:48;;;;;;;34.43;21.90;;;-2.20;84.10;;;;;;5066746;28;20501;-72
2021/01/17 05:10:26;;;;;;;33.10;22.07;;;-2.20;83.90;;;;;;5052649;28;20481;-72
2021/01/17 05:13:05;;;;;;;33.35;21.90;;;-2.10;82.80;;;;;;5049266;28;20410;-72
2021/01/17 05:15:37;;;;;;;34.83;23.10;;;-2.10;83.00;;;;;;5070173;28;20700;-72
2021/01/17 05:18:04;;;;;;;42.58;27.67;;;-2.20;83.80;;;;;;5048540;28;20404;-72
2021/01/17 05:20:33;;;;;;;51.70;33.17;;;-2.20;83.60;;;;;;5069535;28;20508;-72
2021/01/17 05:22:59;;;;;;;39.90;25.73;;;-2.20;83.90;;;;;;5069692;28;20790;-72
2021/01/17 05:25:28;;;;;;;34.33;23.52;;;-2.20;84.40;;;;;;5066906;28;20469;-72
2021/01/17 05:27:55;;;;;;;33.53;22.70;;;-2.20;84.90;;;;;;5069830;28;20794;-72
2021/01/17 05:30:24;;;;;;;33.95;22.58;;;-2.10;85.50;;;;;;5066616;28;20801;-72
2021/01/17 05:32:54;;;;;;;35.80;22.33;;;-2.10;85.50;;;;;;5052394;28;20387;-72
2021/01/17 05:35:23;;;;;;;32.35;22.23;;;-2.30;86.00;;;;;;5078597;28;20416;-72
2021/01/17 05:37:54;;;;;;;33.07;22.67;;;-2.30;86.50;;;;;;5072501;28;20398;-72
2021/01/17 05:40:22;;;;;;;32.75;22.27;;;-2.40;86.70;;;;;;5075523;28;20855;-72
2021/01/17 05:42:50;;;;;;;36.92;22.25;;;-2.40;86.40;;;;;;5070356;28;20419;-72
2021/01/17 05:45:23;;;;;;;34.43;22.50;;;-2.40;86.60;;;;;;5059334;28;20409;-72
2021/01/17 05:47:57;;;;;;;37.28;23.73;;;-2.50;87.00;;;;;;5034557;28;20458;-72
2021/01/17 05:50:28;;;;;;;36.45;22.98;;;-2.50;86.80;;;;;;5066994;28;20461;-72
2021/01/17 05:53:09;;;;;;;40.17;25.70;;;-2.50;86.90;;;;;;5056229;28;20782;-72
2021/01/17 05:55:39;;;;;;;46.30;27.73;;;-2.50;87.30;;;;;;5052530;28;20411;-72
2021/01/17 05:58:24;;;;;;;42.60;26.40;;;-2.50;87.30;;;;;;5073809;28;20419;-72
2021/01/17 06:00:59;;;;;;;43.53;26.05;;;-2.50;87.40;;;;;;5069348;28;20517;-72
2021/01/17 06:03:29;;;;;;;41.10;26.20;;;-2.50;87.30;;;;;;5072747;28;20484;-72
2021/01/17 06:06:00;;;;;;;40.42;25.00;;;-2.50;87.20;;;;;;5069504;28;20408;-72
2021/01/17 06:08:27;;;;;;;36.00;23.73;;;-2.50;86.90;;;;;;5073859;28;20404;-72
2021/01/17 06:11:13;;;;;;;35.90;23.55;;;-2.40;86.80;;;;;;5071216;28;21176;-72
2021/01/17 06:13:42;;;;;;;35.10;23.63;;;-2.50;86.30;;;;;;5063718;28;20485;-72
2021/01/17 06:16:40;;;;;;;35.77;23.60;;;-2.50;86.80;;;;;;5073792;28;20404;-72
2021/01/17 06:19:12;;;;;;;35.90;23.42;;;-2.60;86.90;;;;;;5035892;28;20448;-72
2021/01/17 06:21:39;;;;;;;37.30;24.20;;;-2.60;87.10;;;;;;5044486;28;20404;-72
2021/01/17 06:24:08;;;;;;;37.60;24.53;;;-2.50;87.10;;;;;;5072995;28;20442;-72
2021/01/17 06:26:39;;;;;;;39.35;24.70;;;-2.60;87.30;;;;;;5072951;28;20795;-72
2021/01/17 06:29:11;;;;;;;37.80;25.25;;;-2.60;87.60;;;;;;5052044;28;20465;-72
2021/01/17 06:31:38;;;;;;;38.33;24.50;;;-2.60;87.70;;;;;;5055432;28;20427;-72
2021/01/17 06:34:11;;;;;;;36.80;24.83;;;-2.60;87.80;;;;;;5052947;28;20417;-72
2021/01/17 06:36:41;;;;;;;37.15;24.45;;;-2.70;88.20;;;;;;5035300;28;20429;-72
2021/01/17 06:39:27;;;;;;;37.92;25.05;;;-2.60;88.00;;;;;;5063290;28;20439;-72
2021/01/17 06:41:57;;;;;;;39.42;25.27;;;-2.60;88.10;;;;;;5038899;28;20400;-72
2021/01/17 06:44:29;;;;;;;39.28;25.95;;;-2.50;87.60;;;;;;5068545;28;20754;-72
2021/01/17 06:46:58;;;;;;;38.63;25.30;;;-2.50;87.80;;;;;;5055095;28;20423;-72
2021/01/17 06:49:29;;;;;;;38.60;25.85;;;-2.50;87.30;;;;;;5068732;28;20403;-72
2021/01/17 06:51:56;;;;;;;41.97;26.15;;;-2.50;87.70;;;;;;5055180;28;20480;-72
2021/01/17 06:54:35;;;;;;;38.80;26.03;;;-2.50;88.60;;;;;;5042738;28;20656;-72
2021/01/17 06:57:02;;;;;;;37.35;25.27;;;-2.50;87.80;;;;;;5062684;28;20481;-71
2021/01/17 06:59:36;;;;;;;42.73;26.70;;;-2.40;87.90;;;;;;5068390;28;20429;-72
2021/01/17 07:02:17;;;;;;;41.35;26.08;;;-2.40;87.90;;;;;;5071752;28;20440;-73
2021/01/17 07:04:47;;;;;;;40.67;25.55;;;-2.40;88.00;;;;;;5045623;28;20425;-71
2021/01/17 07:07:22;;;;;;;37.60;24.70;;;-2.40;87.80;;;;;;5035065;28;20402;-71
2021/01/17 07:10:00;;;;;;;40.72;26.10;;;-2.30;87.20;;;;;;5053693;28;20457;-71
2021/01/17 07:12:52;;;;;;;41.13;26.67;;;-2.40;87.00;;;;;;5054908;28;20451;-71
2021/01/17 07:15:31;;;;;;;41.83;27.20;;;-2.40;87.40;;;;;;5069869;28;20481;-71
2021/01/17 07:18:08;;;;;;;41.57;26.67;;;-2.40;87.00;;;;;;5054249;28;20407;-71
2021/01/17 07:20:41;;;;;;;43.33;26.75;;;-2.40;87.50;;;;;;5055419;28;20461;-71
2021/01/17 07:23:16;;;;;;;40.22;25.80;;;-2.40;87.40;;;;;;5040497;28;20801;-71
2021/01/17 07:25:45;;;;;;;38.60;25.80;;;-2.20;87.00;;;;;;5067312;28;20508;-71
2021/01/17 07:28:16;;;;;;;41.30;26.42;;;-2.30;86.50;;;;;;5054112;28;20790;-71
2021/01/17 07:30:52;;;;;;;39.40;25.98;;;-2.30;87.00;;;;;;5050689;28;20887;-71
2021/01/17 07:33:21;;;;;;;41.97;25.73;;;-2.40;87.10;;;;;;5071794;28;20458;-72
2021/01/17 07:35:48;;;;;;;39.42;25.80;;;-2.40;87.00;;;;;;5068092;28;20462;-71
2021/01/17 07:38:22;;;;;;;42.30;27.35;;;-2.40;87.30;;;;;;5071941;28;20415;-71
2021/01/17 07:41:01;;;;;;;41.35;26.95;;;-2.30;86.40;;;;;;5050511;28;20424;-72
2021/01/17 07:43:30;;;;;;;41.70;27.77;;;-2.20;85.50;;;;;;5070846;28;20886;-72
2021/01/17 07:46:09;;;;;;;45.22;27.60;;;-2.20;85.80;;;;;;5049865;28;20871;-72
2021/01/17 07:48:36;;;;;;;41.97;28.30;;;-2.20;86.10;;;;;;5071090;28;20423;-71
2021/01/17 07:51:06;;;;;;;45.97;29.42;;;-2.20;86.20;;;;;;5067260;28;20430;-72
2021/01/17 07:53:39;;;;;;;42.35;28.83;;;-2.10;85.80;;;;;;5033966;28;20912;-71
2021/01/17 07:56:05;;;;;;;44.40;29.00;;;-2.10;85.40;;;;;;5031723;28;20479;-68
2021/01/17 07:58:36;;;;;;;47.00;30.27;;;-2.00;85.50;;;;;;5060271;28;20457;-68
2021/01/17 08:01:03;;;;;;;45.17;29.93;;;-2.00;85.40;;;;;;5070867;28;20446;-69
2021/01/17 08:03:29;;;;;;;47.88;30.48;;;-2.00;84.50;;;;;;5067421;28;20407;-69
2021/01/17 08:05:57;;;;;;;47.15;31.08;;;-1.90;83.30;;;;;;5070781;28;20458;-69
2021/01/17 08:08:36;;;;;;;45.28;30.58;;;-1.90;83.70;;;;;;5067298;28;20411;-69
2021/01/17 08:11:03;;;;;;;46.47;30.95;;;-1.80;83.30;;;;;;5071180;28;20472;-69
2021/01/17 08:13:33;;;;;;;48.70;32.22;;;-1.90;83.60;;;;;;5067017;28;20420;-69
2021/01/17 08:16:07;;;;;;;45.05;30.08;;;-1.80;83.40;;;;;;5053668;28;20407;-69
2021/01/17 08:18:35;;;;;;;47.80;31.30;;;-1.80;83.40;;;;;;5067176;28;20834;-69
2021/01/17 08:21:20;;;;;;;45.95;31.08;;;-1.80;83.10;;;;;;5062888;28;20429;-69
2021/01/17 08:24:11;;;;;;;47.17;30.85;;;-1.80;83.70;;;;;;5052891;28;20416;-69
2021/01/17 08:27:03;;;;;;;47.17;31.30;;;-1.70;83.90;;;;;;5052699;28;20415;-69
2021/01/17 08:29:29;;;;;;;47.50;31.45;;;-1.80;82.40;;;;;;5049635;28;20427;-69
2021/01/17 08:31:55;;;;;;;50.70;32.40;;;-1.90;83.30;;;;;;5061832;28;20479;-69
2021/01/17 08:34:27;;;;;;;48.85;32.13;;;-1.90;84.00;;;;;;5058069;28;20411;-69
2021/01/17 08:36:55;;;;;;;51.85;32.97;;;-1.80;83.50;;;;;;5070468;28;20395;-69
2021/01/17 08:39:45;;;;;;;51.67;33.53;;;-1.80;83.10;;;;;;5066915;28;20403;-69
2021/01/17 08:42:31;;;;;;;50.65;32.63;;;-1.70;83.20;;;;;;5070813;28;20457;-69
2021/01/17 08:45:02;;;;;;;49.97;33.20;;;-1.70;82.80;;;;;;5066715;28;20787;-69
2021/01/17 08:47:36;;;;;;;50.85;32.95;;;-1.60;82.60;;;;;;5052728;28;20434;-69
2021/01/17 08:50:03;;;;;;;48.80;31.85;;;-1.60;82.60;;;;;;5048354;28;21112;-69
2021/01/17 08:52:34;;;;;;;47.83;31.88;;;-1.60;82.20;;;;;;5070036;28;20732;-69
2021/01/17 08:55:01;;;;;;;48.35;32.55;;;-1.60;83.00;;;;;;5066480;28;20587;-71
2021/01/17 08:57:43;;;;;;;48.05;32.38;;;-1.50;83.80;;;;;;5068928;28;20427;-71
2021/01/17 09:00:10;;;;;;;48.83;32.05;;;-1.40;82.40;;;;;;5063836;28;20440;-71
2021/01/17 09:02:38;;;;;;;47.35;31.88;;;-1.40;82.00;;;;;;5070267;28;21172;-71
2021/01/17 09:05:16;;;;;;;46.10;30.93;;;-1.50;81.60;;;;;;5047282;28;20458;-71
2021/01/17 09:07:44;;;;;;;48.80;33.00;;;-1.50;81.70;;;;;;5059913;28;20478;-71
2021/01/17 09:10:14;;;;;;;51.10;33.00;;;-1.60;81.90;;;;;;5048618;28;20466;-71
2021/01/17 09:12:41;;;;;;;52.45;33.65;;;-1.50;82.50;;;;;;5069285;28;21015;-71
2021/01/17 09:15:23;;;;;;;48.40;33.08;;;-1.50;82.40;;;;;;5052810;28;20472;-71
2021/01/17 09:18:00;;;;;;;50.97;32.97;;;-1.40;81.20;;;;;;5066296;28;20404;-71
2021/01/17 09:20:27;;;;;;;49.83;32.80;;;-1.30;81.70;;;;;;5049555;28;20519;-71
2021/01/17 09:22:58;;;;;;;51.25;32.80;;;-1.20;81.00;;;;;;5064441;28;21263;-71
2021/01/17 09:25:25;;;;;;;50.15;32.90;;;-1.00;80.10;;;;;;5052686;28;20422;-71
2021/01/17 09:27:56;;;;;;;49.40;33.13;;;-1.00;80.60;;;;;;5070349;28;20422;-71
2021/01/17 09:30:24;;;;;;;49.17;32.53;;;-0.90;80.20;;;;;;5056516;28;20473;-71
2021/01/17 09:32:51;;;;;;;46.90;32.20;;;-0.70;80.10;;;;;;5052852;28;20847;-71
2021/01/17 09:35:21;;;;;;;50.13;32.83;;;-0.60;79.00;;;;;;5073858;28;20827;-72
2021/01/17 09:37:53;;;;;;;45.58;31.40;;;-0.40;78.70;;;;;;5071013;28;20408;-71
2021/01/17 09:40:19;;;;;;;46.50;31.98;;;-0.20;77.30;;;;;;5073604;28;20436;-71
2021/01/17 09:42:46;;;;;;;45.22;31.15;;;-0.20;76.50;;;;;;5071366;28;20450;-71
2021/01/17 09:45:12;;;;;;;49.67;31.48;;;0.10;75.10;;;;;;5056161;28;20450;-71
2021/01/17 09:47:42;;;;;;;47.53;31.90;;;0.10;75.60;;;;;;5067862;28;20510;-71
2021/01/17 09:50:10;;;;;;;47.30;31.33;;;0.20;75.10;;;;;;5053178;28;20420;-71
2021/01/17 09:52:38;;;;;;;46.30;31.90;;;0.10;75.50;;;;;;5033980;28;20420;-71
2021/01/17 09:55:09;;;;;;;47.90;31.77;;;0.20;75.90;;;;;;5035748;28;20471;-71
2021/01/17 09:57:38;;;;;;;45.40;31.88;;;0.20;75.90;;;;;;5053776;28;20405;-71
2021/01/17 10:00:20;;;;;;;48.53;32.13;;;0.30;76.10;;;;;;5068720;28;20556;-71
2021/01/17 10:02:47;;;;;;;45.22;30.15;;;0.30;75.50;;;;;;5055879;28;20403;-71
2021/01/17 10:05:13;;;;;;;44.80;30.08;;;0.40;75.10;;;;;;5070303;28;20484;-71
2021/01/17 10:07:39;;;;;;;46.58;31.75;;;0.60;72.70;;;;;;5073356;28;20787;-71
2021/01/17 10:10:12;;;;;;;47.80;32.22;;;0.70;74.00;;;;;;5069798;28;20802;-71
2021/01/17 10:12:38;;;;;;;46.72;31.02;;;0.60;72.80;;;;;;5072988;28;20395;-71
2021/01/17 10:15:17;;;;;;;47.37;31.83;;;0.60;73.30;;;;;;5068581;28;20778;-71
2021/01/17 10:17:48;;;;;;;46.63;32.17;;;0.60;73.70;;;;;;5055820;28;20400;-71
2021/01/17 10:20:27;;;;;;;47.58;32.53;;;0.60;73.40;;;;;;5052538;28;20786;-71
2021/01/17 10:23:05;;;;;;;46.00;31.77;;;0.50;73.20;;;;;;5062264;28;20471;-71
2021/01/17 10:25:34;;;;;;;46.70;31.77;;;0.60;73.20;;;;;;5042075;28;20892;-71
2021/01/17 10:28:08;;;;;;;45.08;30.92;;;0.90;73.60;;;;;;5072905;28;20400;-71
2021/01/17 10:30:37;;;;;;;41.10;27.88;;;1.40;72.30;;;;;;5052043;28;21153;-72
2021/01/17 10:33:06;;;;;;;37.13;25.58;;;2.20;71.10;;;;;;5071930;28;20408;-71
2021/01/17 10:35:38;;;;;;;35.07;25.00;;;3.00;66.30;;;;;;5051970;28;20403;-71
2021/01/17 10:38:06;;;;;;;36.58;24.95;;;3.20;64.10;;;;;;5072354;28;20861;-71
2021/01/17 10:40:34;;;;;;;36.42;26.17;;;3.20;63.30;;;;;;5051988;28;20423;-71
2021/01/17 10:43:32;;;;;;;36.30;26.30;;;3.80;62.60;;;;;;5071945;28;20506;-72
2021/01/17 10:46:16;;;;;;;33.78;23.80;;;4.80;60.10;;;;;;5051820;28;21125;-72
2021/01/17 10:48:52;;;;;;;32.92;24.30;;;5.90;55.80;;;;;;5055405;28;20420;-72
2021/01/17 10:51:29;;;;;;;33.40;23.33;;;6.70;53.80;;;;;;5062643;28;20860;-72
2021/01/17 10:54:00;;;;;;;33.55;24.38;;;7.10;51.80;;;;;;5072620;28;20408;-72
2021/01/17 10:56:27;;;;;;;31.83;24.10;;;6.80;49.40;;;;;;5051698;28;20411;-72
2021/01/17 10:58:57;;;;;;;32.42;23.40;;;6.80;51.10;;;;;;5049290;28;20467;-72
2021/01/17 11:01:32;;;;;;;32.72;23.98;;;7.00;50.40;;;;;;5034284;28;20440;-72
2021/01/17 11:04:01;;;;;;;32.70;24.83;;;7.80;48.30;;;;;;5053060;28;20516;-72
2021/01/17 11:06:29;;;;;;;32.22;24.15;;;8.00;46.30;;;;;;5035118;28;20426;-72
2021/01/17 11:08:58;;;;;;;32.58;24.83;;;8.20;46.90;;;;;;5049850;28;20493;-72
2021/01/17 11:11:29;;;;;;;32.23;23.67;;;8.70;45.60;;;;;;5054978;28;20713;-72
2021/01/17 11:14:03;;;;;;;32.58;25.20;;;9.00;45.80;;;;;;5068721;28;20417;-72
2021/01/17 11:17:01;;;;;;;32.90;24.97;;;9.30;44.50;;;;;;5072255;28;20559;-72
2021/01/17 11:19:37;;;;;;;29.77;23.73;;;9.30;43.50;;;;;;5032675;28;20408;-72
2021/01/17 11:22:06;;;;;;;32.67;24.65;;;9.40;43.10;;;;;;5068293;28;20753;-72
2021/01/17 11:24:38;;;;;;;31.90;25.38;;;10.10;43.10;;;;;;5047149;28;20473;-72
2021/01/17 11:27:15;;;;;;;31.43;24.50;;;10.60;43.00;;;;;;5054181;28;20422;-72
2021/01/17 11:29:43;;;;;;;34.47;26.45;;;10.90;40.70;;;;;;5050800;28;20871;-72
2021/01/17 11:32:11;;;;;;;32.97;25.58;;;11.20;39.60;;;;;;5071641;28;20465;-72
2021/01/17 11:34:40;;;;;;;32.13;25.40;;;11.20;39.50;;;;;;5043229;28;20489;-73
2021/01/17 11:37:08;;;;;;;31.00;24.42;;;11.20;40.70;;;;;;5057096;28;20425;-73
2021/01/17 11:39:35;;;;;;;32.92;25.15;;;11.60;39.30;;;;;;5038821;28;20438;-72
2021/01/17 11:42:04;;;;;;;37.15;27.02;;;11.70;40.50;;;;;;5052648;28;20517;-72
2021/01/17 11:44:34;;;;;;;31.15;24.80;;;11.80;40.80;;;;;;5045416;28;20532;-72
2021/01/17 11:47:05;;;;;;;32.47;25.90;;;10.70;39.70;;;;;;5044174;28;20794;-73
2021/01/17 11:49:36;;;;;;;33.45;25.58;;;9.90;42.30;;;;;;5013956;28;20421;-73
2021/01/17 11:52:12;;;;;;;32.60;25.63;;;10.00;41.90;;;;;;5050576;28;20431;-72
2021/01/17 11:54:38;;;;;;;34.60;26.50;;;10.70;41.30;;;;;;5064734;28;20852;-71
2021/01/17 11:57:07;;;;;;;31.30;24.77;;;10.90;40.30;;;;;;5028853;28;20409;-71
2021/01/17 11:59:35;;;;;;;33.25;26.55;;;11.20;39.30;;;;;;5050478;28;20493;-71
2021/01/17 12:02:23;;;;;;;33.28;24.98;;;11.50;39.20;;;;;;5048290;28;20425;-71
2021/01/17 12:05:02;;;;;;;32.45;25.58;;;11.70;39.20;;;;;;5043865;28;20473;-72
2021/01/17 12:07:30;;;;;;;32.23;25.87;;;11.50;38.00;;;;;;5049145;28;20861;-72
2021/01/17 12:10:10;;;;;;;33.38;26.27;;;10.90;39.50;;;;;;5050789;28;20401;-71
2021/01/17 12:12:38;;;;;;;37.95;26.63;;;9.90;39.60;;;;;;5047333;28;20496;-71
2021/01/17 12:15:06;;;;;;;33.85;25.95;;;9.50;41.40;;;;;;5049571;28;20405;-71
2021/01/17 12:17:33;;;;;;;34.60;26.33;;;9.20;41.20;;;;;;5030059;28;20785;-71
2021/01/17 12:19:59;;;;;;;34.63;26.10;;;8.60;43.40;;;;;;5033085;28;20405;-71
2021/01/17 12:22:28;;;;;;;34.90;26.60;;;8.90;43.70;;;;;;5023155;28;20500;-72
2021/01/17 12:24:55;;;;;;;36.47;26.80;;;9.00;42.50;;;;;;5030567;28;20478;-71
2021/01/17 12:27:21;;;;;;;37.08;27.25;;;8.60;43.00;;;;;;5019355;28;20470;-71
2021/01/17 12:29:47;;;;;;;36.30;27.42;;;7.80;44.80;;;;;;5051002;28;20399;-71
2021/01/17 12:32:15;;;;;;;39.23;28.77;;;7.50;45.20;;;;;;5047233;28;20475;-71
2021/01/17 12:34:41;;;;;;;39.13;29.35;;;6.90;46.60;;;;;;5050464;28;20401;-71
2021/01/17 12:37:08;;;;;;;41.85;30.17;;;5.80;48.40;;;;;;5029461;28;20411;-71
2021/01/17 12:39:34;;;;;;;41.78;29.50;;;5.20;50.50;;;;;;5033185;28;20405;-71
2021/01/17 12:42:02;;;;;;;42.97;29.98;;;5.00;52.40;;;;;;5050462;28;20505;-71
2021/01/17 12:44:30;;;;;;;43.83;29.88;;;4.70;53.70;;;;;;5046181;28;20435;-70
2021/01/17 12:46:56;;;;;;;43.65;31.02;;;3.90;54.70;;;;;;5039129;28;20489;-70